createdAt,value
2023-01-11T00:02:05.059Z,98972.41
2023-01-11T00:07:10.011Z,98965.44
2023-01-11T00:12:17.831Z,98956.28
2023-01-11T00:17:22.718Z,98956.72
2023-01-11T00:22:27.732Z,98940.78
2023-01-11T00:27:35.479Z,98926.47
2023-01-11T00:32:40.415Z,98915.41
2023-01-11T00:37:45.593Z,98911.44
2023-01-11T00:43:05.972Z,98888.72
2023-01-11T00:48:11.628Z,98891.34
2023-01-11T00:53:18.402Z,98892.63
2023-01-11T00:58:25.946Z,98889.28
2023-01-11T01:03:30.943Z,98885.75
2023-01-11T01:08:35.845Z,98854.91
2023-01-11T01:13:55.868Z,98857.06
2023-01-11T01:19:01.047Z,98850.72
2023-01-11T01:24:06.127Z,98853.34
2023-01-11T01:29:15.945Z,98843.94
2023-01-11T01:34:21.172Z,98835.28
2023-01-11T01:39:26.186Z,98821.09
2023-01-11T01:45:02.543Z,98810.31
2023-01-11T01:50:13.742Z,98810.00
2023-01-11T01:55:26.185Z,98817.16
2023-01-11T02:00:34.390Z,98809.91
2023-01-11T02:05:39.525Z,98802.22
2023-01-11T02:10:45.209Z,98793.50
2023-01-11T02:16:08.262Z,98788.81
2023-01-11T02:21:24.885Z,98785.50
2023-01-11T02:26:50.500Z,98775.91
2023-01-11T02:32:09.233Z,98767.28
2023-01-11T02:37:29.718Z,98763.63
2023-01-11T02:42:53.180Z,98755.25
2023-01-11T02:48:03.572Z,98745.19
2023-01-11T02:53:14.222Z,98742.34
2023-01-11T02:58:21.812Z,98737.84
2023-01-11T03:03:32.281Z,98720.25
2023-01-11T03:08:59.366Z,98712.50
2023-01-11T03:14:13.161Z,98714.41
2023-01-11T03:19:30.276Z,98710.03
2023-01-11T03:24:43.418Z,98710.09
2023-01-11T03:29:53.873Z,98683.59
2023-01-11T03:35:21.206Z,98681.69
2023-01-11T03:40:31.613Z,98676.69
2023-01-11T03:45:40.897Z,98664.59
2023-01-11T03:50:52.654Z,98652.31
2023-01-11T03:56:00.843Z,98657.03
2023-01-11T04:01:06.664Z,98655.44
2023-01-11T04:06:15.406Z,98645.22
2023-01-11T04:11:20.342Z,98643.91
2023-01-11T04:16:25.518Z,98646.00
2023-01-11T04:21:33.137Z,98640.22
2023-01-11T04:26:38.009Z,98638.97
2023-01-11T04:31:43.018Z,98631.84
2023-01-11T04:36:51.507Z,98630.03
2023-01-11T04:42:08.945Z,98629.75
2023-01-11T04:47:13.852Z,98621.91
2023-01-11T04:52:25.245Z,98609.81
2023-01-11T04:57:30.470Z,98600.63
2023-01-11T05:02:35.519Z,98597.72
2023-01-11T05:08:01.342Z,98595.09
2023-01-11T05:13:15.480Z,98590.09
2023-01-11T05:18:20.475Z,98589.88
2023-01-11T05:23:32.273Z,98586.72
2023-01-11T05:28:37.870Z,98587.25
2023-01-11T05:33:43.131Z,98582.25
2023-01-11T05:38:52.582Z,98586.72
2023-01-11T05:44:10.819Z,98572.78
2023-01-11T05:49:19.000Z,98570.44
2023-01-11T05:54:26.608Z,98571.47
2023-01-11T05:59:33.550Z,98570.97
2023-01-11T06:04:41.160Z,98572.53
2023-01-11T06:09:48.734Z,98571.22
2023-01-11T06:14:54.908Z,98571.47
2023-01-11T06:20:01.413Z,98568.88
2023-01-11T06:25:14.587Z,98580.69
2023-01-11T06:30:25.959Z,98567.78
2023-01-11T06:35:31.090Z,98562.56
2023-01-11T06:40:40.649Z,98565.44
2023-01-11T06:45:49.120Z,98567.03
2023-01-11T06:50:56.005Z,98561.50
2023-01-11T06:56:05.689Z,98546.75
2023-01-11T07:01:12.253Z,98550.44
2023-01-11T07:06:17.869Z,98549.88
2023-01-11T07:11:35.047Z,98554.13
2023-01-11T07:16:43.815Z,98565.19
2023-01-11T07:21:48.837Z,98565.19
2023-01-11T07:27:01.703Z,98565.97
2023-01-11T07:32:12.119Z,98560.97
2023-01-11T07:37:28.016Z,98564.13
2023-01-11T07:43:01.062Z,98553.06
2023-01-11T07:48:11.572Z,98552.00
2023-01-11T07:53:44.589Z,98557.28
2023-01-11T07:58:52.404Z,98549.38
2023-01-11T08:03:58.285Z,98560.94
2023-01-11T08:09:03.496Z,98549.59
2023-01-11T08:14:25.808Z,98547.50
2023-01-11T08:19:31.583Z,98556.44
2023-01-11T08:24:47.952Z,98547.22
2023-01-11T08:30:01.967Z,98547.22
2023-01-11T08:35:09.794Z,98549.56
2023-01-11T08:40:16.499Z,98550.88
2023-01-11T08:45:24.989Z,98537.97
2023-01-11T08:50:30.205Z,98534.53
2023-01-11T08:55:35.131Z,98530.22
2023-01-11T09:00:43.935Z,98516.50
2023-01-11T09:05:56.858Z,98521.22
2023-01-11T09:11:02.825Z,98510.13
2023-01-11T09:16:13.514Z,98517.22
2023-01-11T09:21:19.698Z,98520.41
2023-01-11T09:26:24.931Z,98522.72
2023-01-11T09:31:33.183Z,98519.22
2023-01-11T09:36:40.385Z,98521.88
2023-01-11T09:42:21.876Z,98519.22
2023-01-11T09:47:41.121Z,98508.69
2023-01-11T09:52:52.012Z,98496.22
2023-01-11T09:58:09.316Z,98499.38
2023-01-11T10:03:43.563Z,98475.63
2023-01-11T10:18:33.481Z,98478.53
2023-01-11T10:20:39.059Z,98468.47
2023-01-11T10:25:51.750Z,98452.59
2023-01-11T10:31:11.331Z,98453.38
2023-01-11T10:36:50.565Z,98444.88
2023-01-11T10:42:07.852Z,98444.03
2023-01-11T10:47:20.449Z,98439.31
2023-01-11T10:52:35.710Z,98441.09
2023-01-11T10:58:01.437Z,98434.50
2023-01-11T11:03:31.156Z,98430.47
2023-01-11T11:08:50.259Z,98426.38
2023-01-11T11:14:02.510Z,98436.16
2023-01-11T11:19:08.025Z,98423.75
2023-01-11T11:24:24.122Z,98420.81
2023-01-11T11:29:30.957Z,98427.66
2023-01-11T11:34:36.761Z,98407.38
2023-01-11T11:39:55.656Z,98402.09
2023-01-11T11:45:19.301Z,98394.97
2023-01-11T11:50:44.193Z,98398.84
2023-01-11T11:55:55.579Z,98381.72
2023-01-11T12:01:02.615Z,98384.06
2023-01-11T12:06:09.969Z,98381.38
2023-01-11T12:11:29.623Z,98365.16
2023-01-11T12:16:40.551Z,98366.22
2023-01-11T12:21:46.435Z,98352.06
2023-01-11T12:27:11.347Z,98355.88
2023-01-11T12:32:38.205Z,98343.66
2023-01-11T12:38:02.073Z,98349.69
2023-01-11T12:43:50.512Z,98336.84
2023-01-11T12:49:10.527Z,98335.78
2023-01-11T12:54:38.406Z,98322.06
2023-01-11T13:00:26.158Z,98320.13
2023-01-11T13:05:39.181Z,98304.03
2023-01-11T13:11:02.111Z,98313.63
2023-01-11T13:16:14.706Z,98295.91
2023-01-11T13:21:28.341Z,98299.03
2023-01-11T13:26:38.936Z,98307.47
2023-01-11T13:31:51.715Z,98306.91
2023-01-11T13:37:02.398Z,98310.41
2023-01-11T13:42:16.331Z,98316.47
2023-01-11T13:47:33.791Z,98312.88
2023-01-11T13:52:58.272Z,98325.84
2023-01-11T13:58:08.720Z,98325.25
2023-01-11T14:03:31.101Z,98326.59
2023-01-11T14:09:03.314Z,98332.97
2023-01-11T14:14:28.464Z,98329.47
2023-01-11T14:19:47.229Z,98325.63
2023-01-11T14:25:00.113Z,98318.63
2023-01-11T14:30:34.671Z,98323.19
2023-01-11T14:36:09.195Z,98326.97
2023-01-11T14:41:47.340Z,98330.91
2023-01-11T14:47:14.479Z,98323.59
2023-01-11T14:52:31.132Z,98331.53
2023-01-11T14:57:45.423Z,98321.44
2023-01-11T15:02:54.686Z,98321.44
2023-01-11T15:08:26.078Z,98324.94
2023-01-11T15:13:38.275Z,98334.75
2023-01-11T15:18:49.774Z,98334.66
2023-01-11T15:23:57.249Z,98338.19
2023-01-11T15:29:04.056Z,98340.41
2023-01-11T15:34:27.347Z,98344.91
2023-01-11T15:39:40.152Z,98342.13
2023-01-11T15:45:08.300Z,98335.69
2023-01-11T15:50:39.876Z,98352.59
2023-01-11T15:56:16.839Z,98357.06
2023-01-11T16:01:26.721Z,98343.69
2023-01-11T16:06:47.265Z,98357.06
2023-01-11T16:12:02.160Z,98352.47
2023-01-11T16:17:07.597Z,98356.38
2023-01-11T16:22:20.571Z,98359.53
2023-01-11T16:27:28.967Z,98357.09
2023-01-11T16:32:35.318Z,98364.38
2023-01-11T16:37:48.907Z,98370.59
2023-01-11T16:42:59.977Z,98367.63
2023-01-11T16:48:06.663Z,98375.13
2023-01-11T16:53:17.785Z,98383.38
2023-01-11T16:58:28.874Z,98392.19
2023-01-11T17:03:35.572Z,98406.44
2023-01-11T17:08:44.410Z,98412.63
2023-01-11T17:14:10.722Z,98418.72
2023-01-11T17:19:18.549Z,98404.47
2023-01-11T17:24:28.525Z,98418.41
2023-01-11T17:29:36.385Z,98435.41
2023-01-11T17:34:42.155Z,98430.66
2023-01-11T17:39:53.119Z,98437.03
2023-01-11T17:45:14.144Z,98454.00
2023-01-11T17:50:28.767Z,98455.50
2023-01-11T17:55:36.531Z,98451.88
2023-01-11T18:00:43.548Z,98455.19
2023-01-11T18:05:48.459Z,98464.25
2023-01-11T18:10:58.028Z,98475.03
2023-01-11T18:16:03.414Z,98474.28
2023-01-11T18:21:33.663Z,98468.66
2023-01-11T18:26:43.038Z,98471.63
2023-01-11T18:31:48.221Z,98475.81
2023-01-11T18:36:53.184Z,98481.91
2023-01-11T18:42:13.000Z,98485.28
2023-01-11T18:47:20.844Z,98490.38
2023-01-11T18:52:29.269Z,98496.81
2023-01-11T18:57:37.032Z,98495.84
2023-01-11T19:02:44.328Z,98508.41
2023-01-11T19:07:49.933Z,98516.56
2023-01-11T19:12:57.957Z,98515.75
2023-01-11T19:18:04.915Z,98520.94
2023-01-11T19:23:10.023Z,98522.34
2023-01-11T19:28:18.167Z,98526.59
2023-01-11T19:33:23.788Z,98538.56
2023-01-11T19:38:29.298Z,98555.47
2023-01-11T19:43:38.482Z,98568.72
2023-01-11T19:48:44.204Z,98571.94
2023-01-11T19:53:50.686Z,98572.81
2023-01-11T19:58:58.534Z,98581.69
2023-01-11T20:04:07.813Z,98590.84
2023-01-11T20:09:14.242Z,98596.78
2023-01-11T20:14:23.254Z,98606.56
2023-01-11T20:19:30.299Z,98608.47
2023-01-11T20:24:36.047Z,98621.63
2023-01-11T20:29:44.358Z,98638.91
2023-01-11T20:34:49.506Z,98635.47
2023-01-11T20:39:54.455Z,98639.16
2023-01-11T20:45:02.599Z,98642.09
2023-01-11T20:50:08.745Z,98639.56
2023-01-11T20:55:14.154Z,98646.81
2023-01-11T21:00:23.095Z,98650.41
2023-01-11T21:05:30.339Z,98649.66
2023-01-11T21:10:35.491Z,98648.34
2023-01-11T21:15:43.434Z,98654.41
2023-01-11T21:20:49.906Z,98660.00
2023-01-11T21:25:54.825Z,98657.75
2023-01-11T21:31:06.647Z,98657.13
2023-01-11T21:36:15.045Z,98653.47
2023-01-11T21:41:42.179Z,98647.31
2023-01-11T21:46:50.412Z,98656.28
2023-01-11T21:51:56.144Z,98656.06
2023-01-11T21:57:01.208Z,98678.25
2023-01-11T22:02:09.054Z,98677.78
2023-01-11T22:07:13.953Z,98676.09
2023-01-11T22:12:19.062Z,98690.72
2023-01-11T22:17:26.513Z,98688.31
2023-01-11T22:22:32.311Z,98691.91
2023-01-11T22:27:39.886Z,98706.25
2023-01-11T22:32:47.999Z,98704.94
2023-01-11T22:37:53.525Z,98711.59
2023-01-11T22:42:58.364Z,98722.50
2023-01-11T22:48:06.734Z,98717.22
2023-01-11T22:53:11.927Z,98727.13
2023-01-11T22:58:17.082Z,98735.25
2023-01-11T23:03:24.724Z,98733.91
2023-01-11T23:08:29.594Z,98723.78
2023-01-11T23:13:46.900Z,98724.50
2023-01-11T23:18:54.656Z,98730.09
2023-01-11T23:23:59.574Z,98714.47
2023-01-11T23:29:04.549Z,98706.63
2023-01-11T23:34:13.493Z,98710.59
2023-01-11T23:39:20.192Z,98731.91
2023-01-11T23:44:25.280Z,98727.91
2023-01-11T23:49:34.709Z,98723.69
2023-01-11T23:54:39.624Z,98729.56
2023-01-11T23:59:45.614Z,98717.06
